createdAt,value
2023-03-23T15:59:06.350Z,99987.47
2023-03-23T16:01:32.762Z,99998.31
2023-03-23T16:04:04.324Z,99987.03
2023-03-23T16:06:33.190Z,99996.13
2023-03-23T16:09:00.331Z,99985.38
2023-03-23T16:11:28.679Z,99978.13
2023-03-23T16:13:55.633Z,99977.25
2023-03-23T16:16:27.052Z,99977.03
2023-03-23T16:18:53.974Z,99977.25
2023-03-23T16:21:20.385Z,99991.41
2023-03-23T16:23:46.736Z,99993.50
2023-03-23T16:26:15.052Z,99995.19
2023-03-23T16:28:43.001Z,100009.03
2023-03-23T16:31:10.400Z,100015.00
2023-03-23T16:33:36.813Z,100003.75
2023-03-23T16:36:03.730Z,99993.81
2023-03-23T16:38:30.230Z,99989.72
2023-03-23T16:40:56.665Z,99997.28
2023-03-23T16:43:23.036Z,100000.25
2023-03-23T16:45:49.881Z,99996.88
2023-03-23T16:48:17.057Z,99990.00
2023-03-23T16:50:44.443Z,99991.22
2023-03-23T16:53:11.019Z,99995.50
2023-03-23T16:55:38.530Z,100003.56
2023-03-23T16:58:16.455Z,100004.19
2023-03-23T17:00:47.611Z,100003.31
2023-03-23T17:03:16.087Z,100004.59
2023-03-23T17:05:43.024Z,100007.97
2023-03-23T17:08:09.559Z,100014.50
2023-03-23T17:10:38.506Z,100012.09
2023-03-23T17:13:04.874Z,100021.56
2023-03-23T17:15:31.240Z,100028.69
2023-03-23T17:17:57.616Z,100030.97
2023-03-23T17:20:24.325Z,100035.25
2023-03-23T17:22:50.911Z,100023.34
2023-03-23T17:25:17.302Z,100020.84
2023-03-23T17:27:43.731Z,100020.41
2023-03-23T17:30:11.548Z,100022.00
2023-03-23T17:32:38.338Z,100020.03
2023-03-23T17:35:06.427Z,100019.34
2023-03-23T17:37:33.349Z,100026.00
2023-03-23T17:40:00.095Z,100025.41
2023-03-23T17:42:26.987Z,100034.19
2023-03-23T17:44:53.359Z,100036.88
2023-03-23T17:47:19.805Z,100046.09
2023-03-23T17:49:46.418Z,100048.22
2023-03-23T17:52:12.743Z,100049.63
2023-03-23T17:54:39.077Z,100041.56
2023-03-23T17:57:05.823Z,100036.78
2023-03-23T17:59:32.232Z,100027.31
2023-03-23T18:01:58.752Z,100020.53
2023-03-23T18:04:26.903Z,100018.13
2023-03-23T18:06:57.792Z,100018.81
2023-03-23T18:09:25.337Z,100016.00
2023-03-23T18:11:52.870Z,100006.09
2023-03-23T18:14:20.127Z,100005.97
2023-03-23T18:16:46.734Z,100002.56
2023-03-23T18:19:13.175Z,100001.44
2023-03-23T18:21:39.590Z,99993.91
2023-03-23T18:24:06.302Z,99991.94
2023-03-23T18:26:32.718Z,99984.97
2023-03-23T18:28:59.305Z,99987.78
2023-03-23T18:31:25.772Z,99993.44
2023-03-23T18:33:54.808Z,99988.34
2023-03-23T18:36:24.928Z,99976.91
2023-03-23T18:38:55.286Z,99980.41
2023-03-23T18:41:21.610Z,99983.22
2023-03-23T18:43:48.147Z,99980.13
2023-03-23T18:46:14.531Z,99979.72
2023-03-23T18:48:41.110Z,99970.72
2023-03-23T18:51:08.881Z,99982.44
2023-03-23T18:53:35.621Z,99976.81
2023-03-23T18:56:11.481Z,99979.94
2023-03-23T18:58:38.899Z,99978.94
2023-03-23T19:01:07.962Z,99968.63
2023-03-23T19:03:36.079Z,99972.16
2023-03-23T19:06:04.367Z,99976.84
2023-03-23T19:08:31.752Z,99965.38
2023-03-23T19:11:01.044Z,99957.88
2023-03-23T19:13:29.368Z,99954.78
2023-03-23T19:15:56.070Z,99949.56
2023-03-23T19:18:22.988Z,99945.75
2023-03-23T19:21:12.493Z,99945.75
2023-03-23T19:23:37.279Z,99937.09
2023-03-23T19:26:04.023Z,99938.53
2023-03-23T19:29:18.761Z,99950.25
2023-03-23T19:31:19.689Z,99948.56
2023-03-23T19:33:48.956Z,99942.75
2023-03-23T19:36:16.705Z,99937.38
2023-03-23T19:38:43.302Z,99939.53
2023-03-23T19:41:10.014Z,99935.41
2023-03-23T19:43:37.705Z,99936.56
2023-03-23T19:46:04.491Z,99924.97
2023-03-23T19:48:31.036Z,99927.06
2023-03-23T19:50:57.540Z,99919.44
2023-03-23T19:53:24.297Z,99914.94
2023-03-23T19:55:51.510Z,99911.53
2023-03-23T19:58:18.513Z,99910.94
2023-03-23T20:00:45.835Z,99907.13
2023-03-23T20:03:12.989Z,99909.38
2023-03-23T20:05:40.721Z,99904.03
2023-03-23T20:08:09.706Z,99897.09
2023-03-23T20:10:36.584Z,99892.16
2023-03-23T20:13:04.367Z,99900.38
2023-03-23T20:15:31.509Z,99892.16
2023-03-23T20:17:58.408Z,99882.69
2023-03-23T20:20:25.152Z,99889.75
2023-03-23T20:22:54.397Z,99879.31
2023-03-23T20:25:22.699Z,99879.31
2023-03-23T20:27:49.188Z,99884.38
2023-03-23T20:30:16.962Z,99869.81
2023-03-23T20:32:46.140Z,99869.53
2023-03-23T20:35:12.976Z,99868.81
2023-03-23T20:37:39.845Z,99864.00
2023-03-23T20:40:10.963Z,99861.47
2023-03-23T20:42:38.264Z,99857.81
2023-03-23T20:45:06.434Z,99859.75
2023-03-23T20:47:32.845Z,99858.91
2023-03-23T20:49:59.202Z,99852.69
2023-03-23T20:52:25.950Z,99859.19
2023-03-23T20:54:53.326Z,99841.75
2023-03-23T20:57:20.637Z,99839.91
2023-03-23T20:59:47.018Z,99834.28
2023-03-23T21:02:15.529Z,99842.03
2023-03-23T21:04:42.396Z,99829.72
2023-03-23T21:07:10.056Z,99835.81
2023-03-23T21:09:36.425Z,99830.75
2023-03-23T21:12:06.249Z,99839.47
2023-03-23T21:14:33.756Z,99830.56
2023-03-23T21:17:01.495Z,99833.25
2023-03-23T21:19:29.809Z,99831.72
2023-03-23T21:21:57.280Z,99834.41
2023-03-23T21:24:26.416Z,99834.00
2023-03-23T21:26:54.623Z,99835.25
2023-03-23T21:29:23.884Z,99836.13
2023-03-23T21:32:01.093Z,99832.56
2023-03-23T21:34:34.269Z,99831.44
2023-03-23T21:37:00.638Z,99833.19
2023-03-23T21:39:28.003Z,99831.47
2023-03-23T21:41:54.446Z,99820.75
2023-03-23T21:44:20.825Z,99824.84
2023-03-23T21:46:47.169Z,99813.31
2023-03-23T21:49:14.226Z,99812.31
2023-03-23T21:51:41.560Z,99814.88
2023-03-23T21:54:09.921Z,99812.31
2023-03-23T21:56:37.491Z,99812.47
2023-03-23T21:59:04.594Z,99811.06
2023-03-23T22:01:31.115Z,99805.13
2023-03-23T22:03:57.999Z,99807.41
2023-03-23T22:06:30.875Z,99809.25
2023-03-23T22:08:57.308Z,99801.75
2023-03-23T22:11:26.848Z,99813.19
2023-03-23T22:13:54.761Z,99797.66
2023-03-23T22:16:21.869Z,99789.75
2023-03-23T22:18:49.448Z,99796.56
2023-03-23T22:21:17.035Z,99793.59
2023-03-23T22:23:44.959Z,99790.75
2023-03-23T22:26:12.530Z,99783.00
2023-03-23T22:28:40.061Z,99773.69
2023-03-23T22:31:16.930Z,99777.34
2023-03-23T22:33:43.698Z,99782.00
2023-03-23T22:36:11.098Z,99781.41
2023-03-23T22:38:41.253Z,99780.84
2023-03-23T22:41:09.057Z,99779.56
2023-03-23T22:43:37.028Z,99785.06
2023-03-23T22:46:04.792Z,99775.22
2023-03-23T22:48:31.642Z,99765.47
2023-03-23T22:50:58.448Z,99768.84
2023-03-23T22:53:25.302Z,99768.00
2023-03-23T22:55:54.505Z,99755.44
2023-03-23T22:58:21.270Z,99761.34
2023-03-23T23:00:51.436Z,99757.94
2023-03-23T23:03:18.002Z,99750.91
2023-03-23T23:05:48.491Z,99746.25
2023-03-23T23:08:17.727Z,99747.09
2023-03-23T23:10:46.594Z,99741.84
2023-03-23T23:13:13.486Z,99746.66
2023-03-23T23:15:43.315Z,99725.94
2023-03-23T23:18:10.173Z,99728.72
2023-03-23T23:20:36.953Z,99719.72
2023-03-23T23:23:04.235Z,99722.53
2023-03-23T23:25:31.579Z,99711.22
2023-03-23T23:27:59.500Z,99704.06
2023-03-23T23:30:27.376Z,99696.56
2023-03-23T23:32:53.954Z,99707.72
2023-03-23T23:35:21.187Z,99691.91
2023-03-23T23:37:48.160Z,99699.53
2023-03-23T23:40:15.944Z,99701.50
2023-03-23T23:42:44.053Z,99687.97
2023-03-23T23:45:10.949Z,99684.84
2023-03-23T23:47:38.454Z,99685.84
2023-03-23T23:50:07.254Z,99687.38
2023-03-23T23:52:34.828Z,99693.03
2023-03-23T23:55:01.305Z,99683.28
2023-03-23T23:57:27.703Z,99675.53
2023-03-23T23:59:54.183Z,99677.38
